createdAt,value
2017-01-30T00:00:03.297Z,3.7
2017-01-30T00:05:03.115Z,3.7
2017-01-30T00:10:17.941Z,3.7
2017-01-30T00:15:02.815Z,3.7
2017-01-30T00:20:02.502Z,3.7
2017-01-30T00:25:03.125Z,3.7
2017-01-30T00:30:02.986Z,3.7
2017-01-30T00:35:02.538Z,3.7
2017-01-30T00:40:03.158Z,3.5
2017-01-30T00:45:02.635Z,3.5
2017-01-30T00:50:03.232Z,3.5
2017-01-30T00:55:02.762Z,3.5
2017-01-30T01:00:03.292Z,3.5
2017-01-30T01:05:03.234Z,3.2
2017-01-30T01:10:03.030Z,3.2
2017-01-30T01:15:02.760Z,3.2
2017-01-30T01:20:02.732Z,3.2
2017-01-30T01:25:03.431Z,3.5
2017-01-30T01:30:03.292Z,3.5
2017-01-30T01:35:02.771Z,3.7
2017-01-30T01:40:02.424Z,3.7
2017-01-30T01:45:03.378Z,3.7
2017-01-30T01:50:03.089Z,3.7
2017-01-30T01:55:02.543Z,4.0
2017-01-30T02:00:03.098Z,4.0
2017-01-30T02:05:02.710Z,4.0
2017-01-30T02:10:03.102Z,4.0
2017-01-30T02:15:02.997Z,4.0
2017-01-30T02:20:02.856Z,4.0
2017-01-30T02:25:02.669Z,4.0
2017-01-30T02:30:03.273Z,4.0
2017-01-30T02:35:02.977Z,4.0
2017-01-30T02:40:02.948Z,4.0
2017-01-30T02:45:02.688Z,4.0
2017-01-30T02:50:03.197Z,4.3
2017-01-30T02:55:03.078Z,4.0
2017-01-30T03:00:02.735Z,4.0
2017-01-30T03:05:02.494Z,4.0
2017-01-30T03:10:02.969Z,4.0
2017-01-30T03:15:02.633Z,4.3
2017-01-30T03:20:03.581Z,4.0
2017-01-30T03:25:03.426Z,4.0
2017-01-30T03:30:02.849Z,4.0
2017-01-30T03:35:02.427Z,4.0
2017-01-30T03:40:03.360Z,4.0
2017-01-30T03:45:02.999Z,4.0
2017-01-30T03:50:02.598Z,4.0
2017-01-30T03:55:03.231Z,4.0
2017-01-30T04:00:03.187Z,4.0
2017-01-30T04:05:03.099Z,4.0
2017-01-30T04:10:02.458Z,4.0
2017-01-30T04:15:03.175Z,4.3
2017-01-30T04:20:02.870Z,4.3
2017-01-30T04:25:02.476Z,4.3
2017-01-30T04:30:03.330Z,4.3
2017-01-30T04:35:02.786Z,4.3
2017-01-30T04:40:02.691Z,4.5
2017-01-30T04:45:03.464Z,4.5
2017-01-30T04:50:02.943Z,4.5
2017-01-30T04:55:02.478Z,4.3
2017-01-30T05:00:03.127Z,4.0
2017-01-30T05:05:02.668Z,4.0
2017-01-30T05:10:02.535Z,4.0
2017-01-30T05:15:03.135Z,4.0
2017-01-30T05:20:02.830Z,4.0
2017-01-30T05:25:02.468Z,4.0
2017-01-30T05:30:02.401Z,4.0
2017-01-30T05:35:02.904Z,4.0
2017-01-30T05:40:02.402Z,4.0
2017-01-30T05:45:02.809Z,4.0
2017-01-30T05:50:02.736Z,4.0
2017-01-30T05:55:02.508Z,4.0
2017-01-30T06:00:02.540Z,4.0
2017-01-30T06:05:03.104Z,4.0
2017-01-30T06:10:02.754Z,4.0
2017-01-30T06:15:03.371Z,4.0
2017-01-30T06:20:02.953Z,4.0
2017-01-30T06:25:02.631Z,4.0
2017-01-30T06:30:02.511Z,4.0
2017-01-30T06:35:02.513Z,4.0
2017-01-30T06:40:03.114Z,4.0
2017-01-30T06:45:02.553Z,4.0
2017-01-30T06:50:03.325Z,4.0
2017-01-30T06:55:02.907Z,4.0
2017-01-30T07:00:02.928Z,4.0
2017-01-30T07:05:03.323Z,4.0
2017-01-30T07:10:03.105Z,4.3
2017-01-30T07:15:02.709Z,4.0
2017-01-30T07:20:03.228Z,4.0
2017-01-30T07:25:02.853Z,4.3
2017-01-30T07:30:02.437Z,4.3
2017-01-30T07:35:03.200Z,4.3
2017-01-30T07:40:02.949Z,4.5
2017-01-30T07:45:02.492Z,4.5
2017-01-30T07:50:03.106Z,4.5
2017-01-30T07:55:02.875Z,4.5
2017-01-30T08:00:02.499Z,4.5
2017-01-30T08:05:03.116Z,4.5
2017-01-30T08:10:02.723Z,4.5
2017-01-30T08:15:03.343Z,4.5
2017-01-30T08:20:03.124Z,4.5
2017-01-30T08:25:02.805Z,4.5
2017-01-30T08:30:03.411Z,4.5
2017-01-30T08:35:03.011Z,4.8
2017-01-30T08:40:02.688Z,4.8
2017-01-30T08:45:02.557Z,4.8
2017-01-30T08:50:03.340Z,4.8
2017-01-30T08:55:02.826Z,4.8
2017-01-30T09:00:02.514Z,4.8
2017-01-30T09:05:03.059Z,5.0
2017-01-30T09:10:02.604Z,5.0
2017-01-30T09:15:03.186Z,5.0
2017-01-30T09:20:02.526Z,5.0
2017-01-30T09:25:02.955Z,5.0
2017-01-30T09:30:02.474Z,5.0
2017-01-30T09:35:02.864Z,5.0
2017-01-30T09:40:02.681Z,5.3
2017-01-30T09:45:02.436Z,5.3
2017-01-30T09:50:02.955Z,5.5
2017-01-30T09:55:02.651Z,5.5
2017-01-30T10:00:03.353Z,5.8
2017-01-30T10:05:02.820Z,5.8
2017-01-30T10:10:02.696Z,5.8
2017-01-30T10:15:02.494Z,5.9
2017-01-30T10:20:02.455Z,5.9
2017-01-30T10:25:03.023Z,5.9
2017-01-30T10:30:02.746Z,5.9
2017-01-30T10:35:02.443Z,5.9
2017-01-30T10:40:03.049Z,5.9
2017-01-30T10:45:02.604Z,5.9
2017-01-30T10:50:03.121Z,5.9
2017-01-30T10:55:02.843Z,6.0
2017-01-30T11:00:02.531Z,6.0
2017-01-30T11:05:02.521Z,6.0
2017-01-30T11:10:03.008Z,6.0
2017-01-30T11:15:02.809Z,6.0
2017-01-30T11:20:02.447Z,6.0
2017-01-30T11:25:03.173Z,6.0
2017-01-30T11:30:03.112Z,6.1
2017-01-30T11:35:02.773Z,6.1
2017-01-30T11:40:02.561Z,6.1
2017-01-30T11:45:02.585Z,6.4
2017-01-30T11:50:03.305Z,6.1
2017-01-30T11:55:02.519Z,6.1
2017-01-30T12:00:03.250Z,6.4
2017-01-30T12:05:02.907Z,6.4
2017-01-30T12:10:02.638Z,6.4
2017-01-30T12:15:03.177Z,6.5
2017-01-30T12:20:03.073Z,6.6
2017-01-30T12:25:02.499Z,6.6
2017-01-30T12:30:03.123Z,6.5
2017-01-30T12:35:02.713Z,6.6
2017-01-30T12:40:02.720Z,6.6
2017-01-30T12:45:03.127Z,6.6
2017-01-30T12:50:03.148Z,6.6
2017-01-30T12:55:02.622Z,6.6
2017-01-30T13:00:03.344Z,6.5
2017-01-30T13:05:02.961Z,6.5
2017-01-30T13:10:02.428Z,6.5
2017-01-30T13:15:03.019Z,6.5
2017-01-30T13:20:02.991Z,6.5
2017-01-30T13:25:02.788Z,6.5
2017-01-30T13:30:02.587Z,6.4
2017-01-30T13:35:02.887Z,6.4
2017-01-30T13:40:02.428Z,6.1
2017-01-30T13:45:03.205Z,6.4
2017-01-30T13:50:03.024Z,6.4
2017-01-30T13:55:02.765Z,6.4
2017-01-30T14:00:02.627Z,6.4
2017-01-30T14:05:03.223Z,6.4
2017-01-30T14:10:02.581Z,6.1
2017-01-30T14:15:03.004Z,6.1
2017-01-30T14:20:02.438Z,6.1
2017-01-30T14:25:02.805Z,6.1
2017-01-30T14:30:03.372Z,6.1
2017-01-30T14:35:03.015Z,6.1
2017-01-30T14:40:02.918Z,6.1
2017-01-30T14:45:02.587Z,6.1
2017-01-30T14:50:03.379Z,6.1
2017-01-30T14:55:02.891Z,6.1
2017-01-30T15:00:02.550Z,6.0
2017-01-30T15:05:02.550Z,6.0
2017-01-30T15:10:03.450Z,5.9
2017-01-30T15:15:02.974Z,5.8
2017-01-30T15:20:02.506Z,5.9
2017-01-30T15:25:03.221Z,5.8
2017-01-30T15:30:02.770Z,5.8
2017-01-30T15:35:02.506Z,5.5
2017-01-30T15:40:03.116Z,5.5
2017-01-30T15:45:02.989Z,5.4
2017-01-30T15:50:03.087Z,5.4
2017-01-30T15:55:02.898Z,5.4
2017-01-30T16:00:02.527Z,5.4
2017-01-30T16:05:03.178Z,5.3
2017-01-30T16:10:02.715Z,5.4
2017-01-30T16:15:03.279Z,5.4
2017-01-30T16:20:02.958Z,5.5
2017-01-30T16:25:02.610Z,5.4
2017-01-30T16:30:03.207Z,5.4
2017-01-30T16:35:02.947Z,5.4
2017-01-30T16:40:02.683Z,5.3
2017-01-30T16:45:02.608Z,5.0
2017-01-30T16:50:03.214Z,5.0
2017-01-30T16:55:02.680Z,5.0
2017-01-30T17:00:03.302Z,4.8
2017-01-30T17:05:02.816Z,5.0
2017-01-30T17:10:02.562Z,4.8
2017-01-30T17:15:03.064Z,4.8
2017-01-30T17:20:02.575Z,4.5
2017-01-30T17:25:02.472Z,4.5
2017-01-30T17:30:03.002Z,4.5
2017-01-30T17:35:02.482Z,4.5
2017-01-30T17:40:02.965Z,4.5
2017-01-30T17:45:03.229Z,4.3
2017-01-30T17:50:02.683Z,4.3
2017-01-30T17:55:03.217Z,4.3
2017-01-30T18:00:02.676Z,4.0
2017-01-30T18:05:02.583Z,4.0
2017-01-30T18:10:02.333Z,4.0
2017-01-30T18:15:03.041Z,4.0
2017-01-30T18:20:02.767Z,4.0
2017-01-30T18:25:03.262Z,4.0
2017-01-30T18:30:03.142Z,4.0
2017-01-30T18:35:02.738Z,4.0
2017-01-30T18:40:02.531Z,3.7
2017-01-30T18:45:02.962Z,4.0
2017-01-30T18:50:02.583Z,3.7
2017-01-30T18:55:02.416Z,3.7
2017-01-30T19:00:02.947Z,3.7
2017-01-30T19:05:02.634Z,3.5
2017-01-30T19:10:02.667Z,3.5
2017-01-30T19:15:03.327Z,3.2
2017-01-30T19:20:03.261Z,3.2
2017-01-30T19:25:02.911Z,3.2
2017-01-30T19:30:02.562Z,3.2
2017-01-30T19:35:02.511Z,3.0
2017-01-30T19:40:03.351Z,2.9
2017-01-30T19:45:02.908Z,2.9
2017-01-30T19:50:02.861Z,2.9
2017-01-30T19:55:02.831Z,2.9
2017-01-30T20:00:02.567Z,2.7
2017-01-30T20:05:02.424Z,2.5
2017-01-30T20:10:03.162Z,2.5
2017-01-30T20:15:03.067Z,2.5
2017-01-30T20:20:02.940Z,2.5
2017-01-30T20:25:02.470Z,2.5
2017-01-30T20:30:03.005Z,2.5
2017-01-30T20:35:02.653Z,2.5
2017-01-30T20:40:02.419Z,2.5
2017-01-30T20:45:03.076Z,2.5
2017-01-30T20:50:02.833Z,2.5
2017-01-30T20:55:03.438Z,2.7
2017-01-30T21:00:02.594Z,2.7
2017-01-30T21:05:03.128Z,2.5
2017-01-30T21:10:03.169Z,2.5
2017-01-30T21:15:02.967Z,2.7
2017-01-30T21:20:03.019Z,2.7
2017-01-30T21:25:02.414Z,2.7
2017-01-30T21:30:03.126Z,2.7
2017-01-30T21:35:02.968Z,2.7
2017-01-30T21:40:03.191Z,2.7
2017-01-30T21:45:02.725Z,2.9
2017-01-30T21:50:03.091Z,2.7
2017-01-30T21:55:02.879Z,2.7
2017-01-30T22:00:03.226Z,2.7
2017-01-30T22:05:03.296Z,2.7
2017-01-30T22:10:02.987Z,2.7
2017-01-30T22:15:02.400Z,2.7
2017-01-30T22:20:02.846Z,2.7
2017-01-30T22:25:03.132Z,2.7
2017-01-30T22:30:02.483Z,2.7
2017-01-30T22:35:02.925Z,2.7
2017-01-30T22:40:02.586Z,2.5
2017-01-30T22:45:02.749Z,2.5
2017-01-30T22:50:02.507Z,2.5
2017-01-30T22:55:03.410Z,2.5
2017-01-30T23:00:03.094Z,2.7
2017-01-30T23:05:02.733Z,2.7
2017-01-30T23:10:02.676Z,2.7
2017-01-30T23:15:02.895Z,2.7
2017-01-30T23:20:02.819Z,2.7
2017-01-30T23:25:02.420Z,2.7
2017-01-30T23:30:02.848Z,3.0
2017-01-30T23:35:02.515Z,2.9
2017-01-30T23:40:03.268Z,2.9
2017-01-30T23:45:02.697Z,2.9
2017-01-30T23:50:02.557Z,2.7
2017-01-30T23:55:02.457Z,2.7
